Canovanas, PR

8:14 AM AST on March 02, 2015 (GMT -0400)
Mercedita | Change Station
CLOSE
Current Station
Airport
Location: Ponce,
Elevation: 30 ft
Nearby Weather Stations

Elev 30 ft 18.01 °N, 66.56 °W | Updated 2 hours ago

Scattered Clouds
Scattered Clouds
66 °F
Feels Like 66 °F
N
0
Wind Variable Wind from North

Today
High -- | Low -- °F
--% Chance of Precip.
Yesterday
High -- | Low -- °F
Precip. -- in
6:41 AM 6:29 PM
Waxing Gibbous, 91% visible
Pressure 30.01 in
Visibility 8.0 miles
Clouds Few 2500 ft
Scattered Clouds 5000 ft
Dew Point 61 °F
Humidity 83%
Rainfall 0.00 in
Snow Depth Not available.
UV 0 out of 12
Pollen Not available.
Air Quality Not available.
Flu Activity Not available.
METAR TJPS 020950Z 00000KT 8SM FEW025 SCT050 19/16 A3001

More Conditions Fewer Conditions

Pressure 30.01 in
Visibility 8.0 miles
Clouds Few 2500 ft
Scattered Clouds 5000 ft
Dew Point 61 °F
Humidity 83%
Rainfall 0.00 in
Snow Depth Not available.
UV 0 out of 12
Pollen Not available.
Air Quality Not available.
Flu Activity Not available.
METAR TJPS 020950Z 00000KT 8SM FEW025 SCT050 19/16 A3001

More Conditions Fewer Conditions

Nowcast | as of 8:05 am AST on March 2, 2015

During the next two hours or so...scattered showers will continue to move inland...affecting the northeast quadrant of Puerto Rico. Isolated showers are also expected over north central and north west Puerto Rico early this morning. Ponding of water is expected with the heavies showers.

×

10-Day Weather Forecast

Almanac

Astronomy

Mar. 02, 2015 Rise Set
Actual Time
Civil Twilight
Nautical Twilight
Astronomical Twilight
Moon
Length of Visible Light
Length of Day
Tomorrow will be .
, % of the Moon is Illuminated

Today's Extremes

State Highs State Lows

Community

WunderPhotos

Upload Photos

1,801,770 photos uploaded!

WunderBlogs® & News

Nearby

Air Quality

  Air Quality AQ Index Pollutant
Not available.

Snow Depth

Station Depth Elevation

Earthquake Activity

City Distance Mag. Time & Date
Minimum magnitude displayed is 2.5.

Coastal Water Temperatures

Place Temperature

Nearby Weather Stations